This is the latest recevied weather packets stored in our database for station/object OK2ZI. If no packets are shown the sender has not sent any weather packets the latest 10 day(s).
| Time | Temp. | Humidity | Pressure | Rain* | Wind** | Luminosity | Snow |
|---|---|---|---|---|---|---|---|
| 1778321412 | 15° C | 58% | 1016 hPa | 0 mm | - | - | - |
| 1778321167 | 15° C | 55% | 1016 hPa | 0 mm | - | - | - |
| 1778320686 | 15° C | 57% | 1016 hPa | 0 mm | - | - | - |
| 1778320566 | 15° C | 57% | 1016 hPa | 0 mm | - | - | - |
| 1778320446 | 15° C | 55% | 1016 hPa | 0 mm | - | - | - |
| 1778317811 | 13.89° C | 58% | 1017 hPa | 0 mm | - | - | - |
| 1778317217 | 14.44° C | 60% | 1016 hPa | 0 mm | - | - | - |
| 1778316726 | 14.44° C | 59% | 1017 hPa | 0 mm | - | - | - |
| 1778316367 | 13.89° C | 58% | 1016 hPa | 0 mm | - | - | - |
| 1778313966 | 13.33° C | 63% | 1017 hPa | 0 mm | - | - | - |
| 1778311926 | 12.78° C | 65% | 1017 hPa | 0 mm | - | - | - |
| 1778311813 | 12.78° C | 65% | 1017 hPa | 0 mm | - | - | - |
| 1778311566 | 12.22° C | 67% | 1017 hPa | 0 mm | - | - | - |
| 1778311446 | 12.22° C | 67% | 1017 hPa | 0 mm | - | - | - |
| 1778311327 | 12.78° C | 66% | 1017 hPa | 0 mm | - | - | - |
| 1778309526 | 12.78° C | 66% | 1017 hPa | 0 mm | - | - | - |
| 1778308812 | 12.78° C | 68% | 1017 hPa | 0 mm | - | - | - |
| 1778308685 | 12.22° C | 67% | 1017 hPa | 0 mm | - | - | - |
| 1778308327 | 12.22° C | 69% | 1017 hPa | 0 mm | - | - | - |
| 1778308214 | 12.22° C | 67% | 1017 hPa | 0 mm | - | - | - |
| 1778307846 | 11.67° C | 70% | 1016 hPa | 0 mm | - | - | - |
| 1778305326 | 9.44° C | 80% | 1016 hPa | 0 mm | - | - | - |
| 1778304966 | 9.44° C | 81% | 1016 hPa | 0 mm | - | - | - |
| 1778302446 | 7.78° C | 90% | 1016 hPa | 0 mm | - | - | - |
| 1778300166 | 6.67° C | 95% | 1016 hPa | 0 mm | - | - | - |
* Rain latest hour (hover to see other rain measurements)
** Current wind speed in m/s (hover to see current wind gust speed)